createdAt,value
2019-02-19T00:00:13.498Z,148162.50
2019-02-19T00:01:19.233Z,148184.53
2019-02-19T00:02:24.772Z,148123.38
2019-02-19T00:03:30.753Z,148141.67
2019-02-19T00:04:36.695Z,148152.41
2019-02-19T00:05:42.632Z,148112.70
2019-02-19T00:06:48.530Z,148119.00
2019-02-19T00:07:54.463Z,148131.58
2019-02-19T00:09:00.371Z,148069.84
2019-02-19T00:10:05.599Z,148025.72
2019-02-19T00:11:11.230Z,148040.20
2019-02-19T00:12:17.138Z,148025.09
2019-02-19T00:13:23.051Z,148020.08
2019-02-19T00:14:28.986Z,148028.89
2019-02-19T00:15:34.521Z,148015.00
2019-02-19T00:16:40.424Z,148006.81
2019-02-19T00:17:46.357Z,148005.55
2019-02-19T00:18:52.257Z,148005.55
2019-02-19T00:19:58.153Z,147981.61
2019-02-19T00:21:04.066Z,147958.31
2019-02-19T00:22:09.687Z,147955.78
2019-02-19T00:23:15.566Z,147982.87
2019-02-19T00:24:21.487Z,147970.31
2019-02-19T00:25:27.822Z,147938.78
2019-02-19T00:26:33.994Z,147918.66
2019-02-19T00:27:39.907Z,147893.45
2019-02-19T00:28:45.781Z,147877.67
2019-02-19T00:29:51.649Z,147861.30
2019-02-19T00:30:57.566Z,147844.30
2019-02-19T00:32:03.505Z,147842.45
2019-02-19T00:33:09.593Z,147848.73
2019-02-19T00:34:15.533Z,147843.08
2019-02-19T00:35:21.433Z,147845.56
2019-02-19T00:36:27.356Z,147863.84
2019-02-19T00:37:33.238Z,147868.91
2019-02-19T00:38:39.136Z,147855.02
2019-02-19T00:39:45.015Z,147847.47
2019-02-19T00:40:50.934Z,147836.75
2019-02-19T00:41:56.840Z,147827.94
2019-02-19T00:43:02.746Z,147822.28
2019-02-19T00:44:08.396Z,147827.30
2019-02-19T00:45:16.784Z,147849.38
2019-02-19T00:46:20.309Z,147885.28
2019-02-19T00:47:26.385Z,147889.66
2019-02-19T00:48:32.300Z,147875.19
2019-02-19T00:49:38.269Z,147853.75
2019-02-19T00:50:44.198Z,147834.27
2019-02-19T00:51:50.139Z,147816.62
2019-02-19T00:52:56.031Z,147782.63
2019-02-19T00:54:01.924Z,147796.47
2019-02-19T00:55:07.141Z,147790.19
2019-02-19T00:56:13.054Z,147788.28
2019-02-19T00:57:19.003Z,147785.13
2019-02-19T00:58:24.958Z,147786.37
2019-02-19T00:59:30.855Z,147797.09
2019-02-19T01:00:36.766Z,147785.13
2019-02-19T01:01:42.273Z,147768.12
2019-02-19T01:02:47.824Z,147748.00
2019-02-19T01:03:53.408Z,147736.03
2019-02-19T01:04:59.370Z,147714.02
2019-02-19T01:06:04.959Z,147727.84
2019-02-19T01:07:10.849Z,147712.13
2019-02-19T01:08:15.822Z,147697.02
2019-02-19T01:09:21.389Z,147695.75
2019-02-19T01:10:26.605Z,147683.19
2019-02-19T01:11:32.510Z,147680.66
2019-02-19T01:12:38.441Z,147673.11
2019-02-19T01:13:44.388Z,147684.41
2019-02-19T01:14:50.307Z,147725.36
2019-02-19T01:15:55.889Z,147767.53
2019-02-19T01:17:01.804Z,147762.47
2019-02-19T01:18:07.023Z,147796.47
2019-02-19T01:19:12.927Z,147811.56
2019-02-19T01:20:18.904Z,147806.55
2019-02-19T01:21:24.798Z,147778.20
2019-02-19T01:22:30.760Z,147743.56
2019-02-19T01:23:36.640Z,147734.75
2019-02-19T01:24:42.542Z,147751.17
2019-02-19T01:25:48.461Z,147783.91
2019-02-19T01:26:54.394Z,147782.00
2019-02-19T01:28:00.351Z,147833.00
2019-02-19T01:29:06.922Z,147891.56
2019-02-19T01:30:12.823Z,147916.75
2019-02-19T01:31:18.730Z,147928.09
2019-02-19T01:32:24.708Z,147904.13
2019-02-19T01:33:30.582Z,147858.81
2019-02-19T01:34:36.540Z,147884.00
2019-02-19T01:35:43.044Z,147848.09
2019-02-19T01:36:49.013Z,147826.72
2019-02-19T01:37:54.940Z,147806.55
2019-02-19T01:39:00.874Z,147811.56
2019-02-19T01:40:06.093Z,147804.66
2019-02-19T01:41:11.966Z,147785.13
2019-02-19T01:42:17.924Z,147771.92
2019-02-19T01:43:23.866Z,147749.27
2019-02-19T01:44:29.747Z,147705.20
2019-02-19T01:45:35.633Z,147705.20
2019-02-19T01:46:41.753Z,147733.53
2019-02-19T01:47:47.690Z,147752.39
2019-02-19T01:48:53.633Z,147739.83
2019-02-19T01:49:59.547Z,147716.55
2019-02-19T01:51:05.450Z,147725.94
2019-02-19T01:52:11.350Z,147632.84
2019-02-19T01:53:17.301Z,147592.55
2019-02-19T01:54:23.187Z,147520.86
2019-02-19T01:55:29.103Z,147480.63
2019-02-19T01:56:35.010Z,147470.55
2019-02-19T01:57:40.951Z,147492.55
2019-02-19T01:58:46.890Z,147505.14
2019-02-19T01:59:52.806Z,147562.38
2019-02-19T02:00:58.706Z,147580.00
2019-02-19T02:02:04.240Z,147617.08
2019-02-19T02:03:10.200Z,147655.50
2019-02-19T02:04:16.075Z,147646.05
2019-02-19T02:05:21.993Z,147658.02
2019-02-19T02:06:27.929Z,147627.16
2019-02-19T02:07:33.573Z,147620.25
2019-02-19T02:08:39.447Z,147588.17
2019-02-19T02:09:45.427Z,147555.47
2019-02-19T02:10:51.322Z,147535.94
2019-02-19T02:11:57.230Z,147529.03
2019-02-19T02:13:03.199Z,147546.03
2019-02-19T02:14:09.087Z,147578.72
2019-02-19T02:15:14.982Z,147675.02
2019-02-19T02:16:20.898Z,147754.92
2019-02-19T02:17:26.778Z,147779.47
2019-02-19T02:18:32.705Z,147801.53
2019-02-19T02:19:38.276Z,147772.55
2019-02-19T02:20:44.218Z,147690.73
2019-02-19T02:21:50.098Z,147577.47
2019-02-19T02:22:56.004Z,147557.36
2019-02-19T02:24:01.905Z,147546.03
2019-02-19T02:25:07.150Z,147559.84
2019-02-19T02:26:13.072Z,147568.66
2019-02-19T02:27:18.597Z,147559.84
2019-02-19T02:28:24.543Z,147617.72
2019-02-19T02:29:30.468Z,147680.66
2019-02-19T02:30:36.374Z,147730.38
2019-02-19T02:31:42.305Z,147756.19
2019-02-19T02:32:48.350Z,147775.08
2019-02-19T02:33:54.308Z,147833.00
2019-02-19T02:35:00.307Z,147812.20
2019-02-19T02:36:06.217Z,147839.28
2019-02-19T02:37:12.148Z,147814.09
2019-02-19T02:38:18.053Z,147815.36
2019-02-19T02:39:23.995Z,147713.38
2019-02-19T02:40:29.885Z,147626.53
2019-02-19T02:41:35.795Z,147603.25
2019-02-19T02:42:41.691Z,147632.84
2019-02-19T02:43:47.631Z,147659.88
2019-02-19T02:44:53.566Z,147722.19
2019-02-19T02:45:59.488Z,147761.84
2019-02-19T02:47:05.407Z,147787.66
2019-02-19T02:48:11.385Z,147793.34
2019-02-19T02:49:17.286Z,147793.94
2019-02-19T02:50:23.188Z,147795.19
2019-02-19T02:51:29.075Z,147805.92
2019-02-19T02:52:34.968Z,147808.44
2019-02-19T02:53:40.874Z,147795.19
2019-02-19T02:54:46.752Z,147772.55
2019-02-19T02:55:52.644Z,147756.81
2019-02-19T02:56:58.547Z,147736.66
2019-02-19T02:58:04.446Z,147707.73
2019-02-19T02:59:10.391Z,147661.77
2019-02-19T03:00:16.296Z,147657.39
2019-02-19T03:01:22.227Z,147629.69
2019-02-19T03:02:28.151Z,147624.67
2019-02-19T03:03:34.164Z,147637.87
2019-02-19T03:04:39.721Z,147635.34
2019-02-19T03:05:57.577Z,147625.89
2019-02-19T03:07:03.225Z,147627.16
2019-02-19T03:08:09.187Z,147617.72
2019-02-19T03:09:15.146Z,147711.48
2019-02-19T03:10:21.062Z,147773.81
2019-02-19T03:11:26.973Z,147855.66
2019-02-19T03:12:32.894Z,147952.67
2019-02-19T03:13:38.824Z,148049.03
2019-02-19T03:14:44.706Z,148124.02
2019-02-19T03:15:50.798Z,148202.83
2019-02-19T03:16:56.863Z,148235.61
2019-02-19T03:18:02.773Z,148283.52
2019-02-19T03:19:08.785Z,148339.69
2019-02-19T03:20:14.316Z,148389.52
2019-02-19T03:21:19.930Z,148383.84
2019-02-19T03:22:26.014Z,148392.63
2019-02-19T03:23:33.644Z,148400.84
2019-02-19T03:24:39.626Z,148426.70
2019-02-19T03:25:45.652Z,148444.38
2019-02-19T03:26:51.680Z,148475.33
2019-02-19T03:27:57.733Z,148486.66
2019-02-19T03:29:03.658Z,148518.25
2019-02-19T03:30:08.946Z,148531.47
2019-02-19T03:31:14.975Z,148512.53
2019-02-19T03:32:20.895Z,148490.47
2019-02-19T03:33:27.030Z,148503.69
2019-02-19T03:34:33.109Z,148547.88
2019-02-19T03:35:39.070Z,148549.16
2019-02-19T03:36:45.523Z,148522.00
2019-02-19T03:37:52.691Z,148474.69
2019-02-19T03:38:58.709Z,148461.41
2019-02-19T03:40:03.913Z,148496.75
2019-02-19T03:41:09.867Z,148488.56
2019-02-19T03:42:15.305Z,148516.34
2019-02-19T03:43:21.239Z,148492.37
2019-02-19T03:44:27.353Z,148499.30
2019-02-19T03:45:33.414Z,148484.16
2019-02-19T03:46:39.014Z,148518.87
2019-02-19T03:47:45.101Z,148502.42
2019-02-19T03:48:51.234Z,148503.06
2019-02-19T03:49:57.202Z,148478.45
2019-02-19T03:51:03.116Z,148462.69
2019-02-19T03:52:09.213Z,148464.59
2019-02-19T03:53:14.870Z,148505.59
2019-02-19T03:54:20.775Z,148509.41
2019-02-19T03:55:26.678Z,148575.67
2019-02-19T03:56:32.588Z,148540.31
2019-02-19T03:57:38.161Z,148526.45
2019-02-19T03:58:43.752Z,148559.91
2019-02-19T03:59:49.776Z,148561.17
2019-02-19T04:00:55.571Z,148596.47
2019-02-19T04:02:01.326Z,148609.77
2019-02-19T04:03:07.362Z,148630.56
2019-02-19T04:04:13.328Z,148662.19
2019-02-19T04:05:19.389Z,148635.02
2019-02-19T04:06:25.338Z,148667.20
2019-02-19T04:07:30.948Z,148649.53
2019-02-19T04:08:36.982Z,148578.16
2019-02-19T04:09:43.027Z,148574.41
2019-02-19T04:10:49.004Z,148566.83
2019-02-19T04:11:54.917Z,148571.23
2019-02-19T04:13:00.952Z,148577.58
2019-02-19T04:14:06.978Z,148606.59
2019-02-19T04:15:12.961Z,148617.97
2019-02-19T04:16:21.252Z,148568.73
2019-02-19T04:17:24.978Z,148578.16
2019-02-19T04:18:31.008Z,148589.55
2019-02-19T04:19:37.064Z,148524.55
2019-02-19T04:20:43.519Z,148520.09
2019-02-19T04:21:49.988Z,148576.94
2019-02-19T04:22:55.948Z,148563.03
2019-02-19T04:24:01.916Z,148524.55
2019-02-19T04:25:07.498Z,148493.00
2019-02-19T04:26:14.106Z,148522.64
2019-02-19T04:27:19.349Z,148517.61
2019-02-19T04:28:25.306Z,148527.67
2019-02-19T04:29:30.948Z,148541.59
2019-02-19T04:30:36.923Z,148522.64
2019-02-19T04:31:42.976Z,148519.47
2019-02-19T04:32:48.984Z,148578.80
2019-02-19T04:33:55.023Z,148607.22
2019-02-19T04:35:01.016Z,148593.36
2019-02-19T04:36:07.029Z,148605.31
2019-02-19T04:37:12.998Z,148605.95
2019-02-19T04:38:19.113Z,148585.78
2019-02-19T04:39:25.242Z,148597.75
2019-02-19T04:40:31.140Z,148568.73
2019-02-19T04:41:37.572Z,148582.61
2019-02-19T04:42:44.130Z,148557.36
2019-02-19T04:43:50.078Z,148551.69
2019-02-19T04:44:56.021Z,148556.09
2019-02-19T04:46:01.953Z,148607.86
2019-02-19T04:47:07.863Z,148647.63
2019-02-19T04:48:13.836Z,148620.47
2019-02-19T04:49:19.766Z,148573.77
2019-02-19T04:50:25.696Z,148643.86
2019-02-19T04:51:31.632Z,148664.03
2019-02-19T04:52:37.590Z,148686.80
2019-02-19T04:53:43.503Z,148684.25
2019-02-19T04:54:49.426Z,148626.81
2019-02-19T04:55:55.371Z,148595.84
2019-02-19T04:57:01.289Z,148527.09
2019-02-19T04:58:07.247Z,148542.22
2019-02-19T04:59:13.203Z,148550.42
2019-02-19T05:00:19.121Z,148544.72
2019-02-19T05:01:25.050Z,148524.55
2019-02-19T05:02:30.932Z,148465.22
2019-02-19T05:03:36.865Z,148413.47
2019-02-19T05:04:42.857Z,148341.59
2019-02-19T05:05:48.738Z,148283.52
2019-02-19T05:06:54.707Z,148255.81
2019-02-19T05:08:00.568Z,148206.59
2019-02-19T05:09:05.552Z,148181.38
2019-02-19T05:10:10.897Z,148158.69
2019-02-19T05:11:16.798Z,148110.81
2019-02-19T05:12:22.675Z,148093.16
2019-02-19T05:13:28.558Z,148073.59
2019-02-19T05:14:34.527Z,148056.59
2019-02-19T05:15:40.436Z,148069.22
2019-02-19T05:16:46.309Z,148088.13
2019-02-19T05:17:52.193Z,148088.13
2019-02-19T05:18:58.105Z,148134.75
2019-02-19T05:20:03.638Z,148170.69
2019-02-19T05:21:09.555Z,148159.97
2019-02-19T05:22:15.494Z,148124.02
2019-02-19T05:23:21.405Z,148098.17
2019-02-19T05:24:27.322Z,148113.34
2019-02-19T05:25:33.247Z,148095.69
2019-02-19T05:26:39.181Z,148100.08
2019-02-19T05:27:45.079Z,148059.75
2019-02-19T05:28:50.955Z,148032.66
2019-02-19T05:29:56.924Z,147999.89
2019-02-19T05:31:02.817Z,147992.97
2019-02-19T05:32:08.713Z,147985.42
2019-02-19T05:33:14.619Z,147989.17
2019-02-19T05:34:20.563Z,147953.88
2019-02-19T05:35:26.466Z,147965.87
2019-02-19T05:36:32.404Z,147948.23
2019-02-19T05:37:38.342Z,147945.06
2019-02-19T05:38:44.258Z,147948.23
2019-02-19T05:39:50.160Z,147959.59
2019-02-19T05:40:56.058Z,147938.78
2019-02-19T05:42:01.941Z,147938.14
2019-02-19T05:43:07.869Z,147930.59
2019-02-19T05:44:13.778Z,147996.09
2019-02-19T05:45:20.454Z,147998.00
2019-02-19T05:46:26.463Z,147966.50
2019-02-19T05:47:32.403Z,147969.67
2019-02-19T05:48:38.305Z,147953.88
2019-02-19T05:49:44.245Z,147945.70
2019-02-19T05:50:50.124Z,147895.31
2019-02-19T05:51:56.038Z,147906.66
2019-02-19T05:53:01.935Z,147899.75
2019-02-19T05:54:07.818Z,147865.73
2019-02-19T05:55:13.761Z,147850.63
2019-02-19T05:56:19.672Z,147851.27
2019-02-19T05:57:25.565Z,147841.19
2019-02-19T05:58:31.504Z,147837.37
2019-02-19T05:59:37.426Z,147826.72
2019-02-19T06:00:43.040Z,147833.00
2019-02-19T06:01:48.573Z,147826.72
2019-02-19T06:02:54.498Z,147819.11
2019-02-19T06:04:00.411Z,147821.02
2019-02-19T06:05:05.907Z,147830.47
2019-02-19T06:06:11.563Z,147847.47
2019-02-19T06:07:17.543Z,147865.73
2019-02-19T06:08:23.527Z,147846.20
2019-02-19T06:09:29.574Z,147836.75
2019-02-19T06:10:35.546Z,147877.09
2019-02-19T06:11:41.411Z,147850.63
2019-02-19T06:12:47.282Z,147834.89
2019-02-19T06:13:53.179Z,147842.45
2019-02-19T06:14:59.109Z,147860.72
2019-02-19T06:16:04.998Z,147855.02
2019-02-19T06:17:10.898Z,147876.45
2019-02-19T06:18:16.773Z,147854.39
2019-02-19T06:19:22.710Z,147850.63
2019-02-19T06:20:28.591Z,147840.55
2019-02-19T06:21:34.468Z,147884.00
2019-02-19T06:22:40.379Z,147912.31
2019-02-19T06:23:46.323Z,147904.77
2019-02-19T06:24:51.844Z,147909.83
2019-02-19T06:25:57.834Z,147930.59
2019-02-19T06:27:03.745Z,147952.03
2019-02-19T06:28:09.620Z,147933.75
2019-02-19T06:29:15.538Z,147926.84
2019-02-19T06:30:21.512Z,147895.94
2019-02-19T06:31:27.427Z,147890.92
2019-02-19T06:32:33.304Z,147907.30
2019-02-19T06:33:39.259Z,147913.58
2019-02-19T06:34:45.181Z,147921.77
2019-02-19T06:35:51.132Z,147965.87
2019-02-19T06:36:57.009Z,147950.77
2019-02-19T06:38:02.965Z,147958.31
2019-02-19T06:39:08.942Z,147997.36
2019-02-19T06:40:23.044Z,148034.56
2019-02-19T06:41:28.933Z,148141.67
2019-02-19T06:42:34.814Z,148245.08
2019-02-19T06:43:40.743Z,148277.86
2019-02-19T06:44:46.615Z,148345.34
2019-02-19T06:45:52.517Z,148415.38
2019-02-19T06:47:06.515Z,148446.28
2019-02-19T06:48:04.055Z,148496.13
2019-02-19T06:49:09.947Z,148572.50
2019-02-19T06:50:15.464Z,148591.45
2019-02-19T06:51:21.404Z,148673.52
2019-02-19T06:52:27.290Z,148724.03
2019-02-19T06:53:33.228Z,148760.05
2019-02-19T06:54:39.225Z,148790.34
2019-02-19T06:55:45.121Z,148806.19
2019-02-19T06:56:50.990Z,148837.13
2019-02-19T06:57:56.905Z,148854.19
2019-02-19T06:59:02.808Z,148857.94
2019-02-19T07:00:08.644Z,148865.56
2019-02-19T07:01:14.544Z,148910.41
2019-02-19T07:02:20.202Z,148907.86
2019-02-19T07:03:26.845Z,148920.53
2019-02-19T07:04:32.481Z,148944.58
2019-02-19T07:05:38.436Z,148969.86
2019-02-19T07:06:44.326Z,149002.09
2019-02-19T07:07:49.964Z,148997.06
2019-02-19T07:08:55.890Z,148995.78
2019-02-19T07:10:01.849Z,149000.88
2019-02-19T07:11:07.796Z,149023.61
2019-02-19T07:12:13.662Z,149001.45
2019-02-19T07:13:19.553Z,149023.61
2019-02-19T07:14:25.456Z,149051.44
2019-02-19T07:15:31.379Z,149053.31
2019-02-19T07:16:37.309Z,149092.53
2019-02-19T07:17:43.196Z,149098.22
2019-02-19T07:18:49.113Z,149108.34
2019-02-19T07:19:55.001Z,149112.11
2019-02-19T07:21:00.838Z,149124.14
2019-02-19T07:22:06.729Z,149088.08
2019-02-19T07:23:12.624Z,149114.02
2019-02-19T07:24:18.529Z,149142.48
2019-02-19T07:25:24.102Z,149126.05
2019-02-19T07:26:30.075Z,149148.17
2019-02-19T07:27:35.948Z,149119.69
2019-02-19T07:28:41.877Z,149142.48
2019-02-19T07:29:47.763Z,149160.84
2019-02-19T07:30:53.692Z,149192.45
2019-02-19T07:31:59.634Z,149210.17
2019-02-19T07:33:05.549Z,149172.19
2019-02-19T07:34:11.431Z,149162.06
2019-02-19T07:35:17.403Z,149179.14
2019-02-19T07:36:23.320Z,149172.19
2019-02-19T07:37:29.222Z,149189.27
2019-02-19T07:38:35.126Z,149174.09
2019-02-19T07:39:41.165Z,149139.94
2019-02-19T07:40:47.076Z,149153.84
2019-02-19T07:41:52.990Z,149152.63
2019-02-19T07:42:58.906Z,149199.41
2019-02-19T07:44:04.853Z,149196.86
2019-02-19T07:45:10.771Z,149183.59
2019-02-19T07:46:16.690Z,149176.02
2019-02-19T07:47:24.667Z,149172.19
2019-02-19T07:48:28.537Z,149188.62
2019-02-19T07:49:34.436Z,149213.30
2019-02-19T07:50:40.311Z,149207.63
2019-02-19T07:51:47.260Z,149188.00
2019-02-19T07:52:53.689Z,149206.98
2019-02-19T07:53:59.613Z,149161.47
2019-02-19T07:55:04.862Z,149163.97
2019-02-19T07:56:10.779Z,149176.02
2019-02-19T07:57:16.698Z,149215.22
2019-02-19T07:58:22.617Z,149167.16
2019-02-19T07:59:28.491Z,149210.81
2019-02-19T08:00:37.368Z,149200.03
2019-02-19T08:01:43.298Z,149212.66
2019-02-19T08:02:49.192Z,149217.13
2019-02-19T08:03:55.128Z,149215.22
2019-02-19T08:05:01.021Z,149210.81
2019-02-19T08:06:06.983Z,149215.22
2019-02-19T08:07:12.892Z,149212.66
2019-02-19T08:08:18.839Z,149203.22
2019-02-19T08:09:24.747Z,149193.09
2019-02-19T08:10:30.646Z,149189.91
2019-02-19T08:11:36.663Z,149174.09
2019-02-19T08:12:43.093Z,149189.27
2019-02-19T08:13:49.454Z,149217.13
2019-02-19T08:14:55.377Z,149234.84
2019-02-19T08:16:01.271Z,149208.89
2019-02-19T08:17:07.188Z,149227.25
2019-02-19T08:18:13.070Z,149263.91
2019-02-19T08:19:19.006Z,149262.05
2019-02-19T08:20:24.892Z,149277.86
2019-02-19T08:21:30.806Z,149277.22
2019-02-19T08:22:36.731Z,149316.44
2019-02-19T08:23:42.603Z,149320.25
2019-02-19T08:24:48.481Z,149312.03
2019-02-19T08:25:54.369Z,149332.89
2019-02-19T08:27:00.330Z,149351.88
2019-02-19T08:28:05.926Z,149358.84
2019-02-19T08:29:13.984Z,149389.25
2019-02-19T08:30:17.750Z,149377.20
2019-02-19T08:31:23.626Z,149388.61
2019-02-19T08:32:29.555Z,149392.38
2019-02-19T08:33:35.466Z,149381.66
2019-02-19T08:34:41.154Z,149418.34
2019-02-19T08:35:47.056Z,149395.56
2019-02-19T08:36:53.065Z,149412.02
2019-02-19T08:37:59.027Z,149425.30
2019-02-19T08:39:04.009Z,149449.39
2019-02-19T08:40:09.245Z,149466.48
2019-02-19T08:41:15.127Z,149465.84
2019-02-19T08:42:21.069Z,149463.94
2019-02-19T08:43:27.045Z,149443.66
2019-02-19T08:44:32.948Z,149446.20
2019-02-19T08:45:38.850Z,149478.48
2019-02-19T08:46:44.732Z,149491.17
2019-02-19T08:47:50.652Z,149463.94
2019-02-19T08:48:56.551Z,149450.61
2019-02-19T08:50:02.311Z,149483.58
2019-02-19T08:51:07.871Z,149507.00
2019-02-19T08:52:13.828Z,149490.53
2019-02-19T08:53:19.715Z,149491.81
2019-02-19T08:54:25.581Z,149508.91
2019-02-19T08:55:32.084Z,149522.19
2019-02-19T08:56:38.539Z,149482.94
2019-02-19T08:57:44.443Z,149517.14
2019-02-19T08:58:51.208Z,149525.36
2019-02-19T08:59:57.111Z,149535.50
2019-02-19T09:01:03.136Z,149556.42
2019-02-19T09:02:08.772Z,149569.70
2019-02-19T09:03:14.657Z,149532.95
2019-02-19T09:04:20.586Z,149562.11
2019-02-19T09:05:26.458Z,149574.80
2019-02-19T09:06:32.379Z,149582.41
2019-02-19T09:07:38.288Z,149588.08
2019-02-19T09:08:44.191Z,149588.08
2019-02-19T09:09:50.152Z,149602.63
2019-02-19T09:10:56.071Z,149610.28
2019-02-19T09:12:01.979Z,149619.73
2019-02-19T09:13:07.932Z,149616.59
2019-02-19T09:14:13.899Z,149645.06
2019-02-19T09:15:19.839Z,149664.72
2019-02-19T09:16:25.887Z,149653.94
2019-02-19T09:17:31.956Z,149682.47
2019-02-19T09:18:37.882Z,149697.03
2019-02-19T09:19:43.804Z,149707.81
2019-02-19T09:20:49.745Z,149683.75
2019-02-19T09:21:55.995Z,149697.67
2019-02-19T09:23:02.533Z,149690.70
2019-02-19T09:24:09.758Z,149729.97
2019-02-19T09:25:14.376Z,149762.33
2019-02-19T09:26:19.972Z,149790.81
2019-02-19T09:27:25.956Z,149803.52
2019-02-19T09:28:31.941Z,149802.87
2019-02-19T09:29:37.807Z,149824.41
2019-02-19T09:30:43.755Z,149864.37
2019-02-19T09:31:49.693Z,149854.22
2019-02-19T09:32:55.815Z,149845.98
2019-02-19T09:34:01.699Z,149874.47
2019-02-19T09:35:06.927Z,149880.84
2019-02-19T09:36:12.940Z,149840.23
2019-02-19T09:37:18.919Z,149844.70
2019-02-19T09:38:24.968Z,149816.16
2019-02-19T09:39:30.870Z,149785.77
2019-02-19T09:40:36.797Z,149768.66
2019-02-19T09:41:42.362Z,149792.09
2019-02-19T09:42:48.267Z,149801.59
2019-02-19T09:43:54.167Z,149819.34
2019-02-19T09:45:00.281Z,149818.72
2019-02-19T09:46:06.007Z,149783.22
2019-02-19T09:47:11.869Z,149813.66
2019-02-19T09:48:17.790Z,149785.77
2019-02-19T09:49:23.410Z,149779.44
2019-02-19T09:50:29.327Z,149743.94
2019-02-19T09:51:35.251Z,149729.38
2019-02-19T09:52:41.149Z,149731.25
2019-02-19T09:53:47.089Z,149715.41
2019-02-19T09:54:52.975Z,149733.80
2019-02-19T09:55:58.859Z,149727.47
2019-02-19T09:57:04.388Z,149749.63
2019-02-19T09:58:10.460Z,149752.17
2019-02-19T09:59:16.471Z,149759.14
2019-02-19T10:00:22.351Z,149762.97
2019-02-19T10:01:28.539Z,149782.58
2019-02-19T10:02:34.273Z,149779.44
2019-02-19T10:03:40.204Z,149764.19
2019-02-19T10:04:46.100Z,149766.75
2019-02-19T10:05:52.057Z,149736.98
2019-02-19T10:06:58.026Z,149771.20
2019-02-19T10:08:03.971Z,149759.14
2019-02-19T10:09:09.653Z,149758.50
2019-02-19T10:10:17.528Z,149768.02
2019-02-19T10:11:23.425Z,149782.58
2019-02-19T10:12:29.334Z,149792.72
2019-02-19T10:13:35.329Z,149767.38
2019-02-19T10:14:41.249Z,149776.25
2019-02-19T10:15:47.149Z,149769.92
2019-02-19T10:16:53.050Z,149783.84
2019-02-19T10:17:58.629Z,149781.94
2019-02-19T10:19:04.533Z,149793.36
2019-02-19T10:20:10.557Z,149811.11
2019-02-19T10:21:17.021Z,149799.69
2019-02-19T10:22:23.433Z,149730.61
2019-02-19T10:23:29.655Z,149773.06
2019-02-19T10:24:35.545Z,149757.86
2019-02-19T10:25:41.451Z,149750.27
2019-02-19T10:26:47.329Z,149734.44
2019-02-19T10:27:53.369Z,149717.31
2019-02-19T10:28:59.277Z,149733.16
2019-02-19T10:30:07.374Z,149735.70
2019-02-19T10:31:13.274Z,149729.97
2019-02-19T10:32:19.145Z,149708.44
2019-02-19T10:33:25.086Z,149695.16
2019-02-19T10:34:30.993Z,149693.89
2019-02-19T10:35:36.951Z,149717.95
2019-02-19T10:36:42.880Z,149713.50
2019-02-19T10:37:48.773Z,149680.56
2019-02-19T10:38:54.680Z,149653.94
2019-02-19T10:40:00.647Z,149678.69
2019-02-19T10:41:07.416Z,149687.52
2019-02-19T10:42:13.917Z,149674.23
2019-02-19T10:43:19.900Z,149664.09
2019-02-19T10:44:25.805Z,149663.45
2019-02-19T10:45:31.733Z,149672.95
2019-02-19T10:46:37.339Z,149685.66
2019-02-19T10:47:43.268Z,149709.72
2019-02-19T10:48:49.244Z,149709.08
2019-02-19T10:49:55.226Z,149729.97
2019-02-19T10:51:01.144Z,149691.97
2019-02-19T10:52:07.034Z,149721.73
2019-02-19T10:53:12.948Z,149674.23
2019-02-19T10:54:18.861Z,149706.53
2019-02-19T10:55:24.786Z,149695.16
2019-02-19T10:56:30.650Z,149692.63
2019-02-19T10:57:36.556Z,149685.66
2019-02-19T10:58:42.493Z,149689.44
2019-02-19T10:59:48.401Z,149710.36
2019-02-19T11:00:54.304Z,149740.13
2019-02-19T11:02:00.232Z,149714.13
2019-02-19T11:03:06.128Z,149667.91
2019-02-19T11:04:12.592Z,149665.36
2019-02-19T11:05:18.526Z,149704.63
2019-02-19T11:06:24.440Z,149698.94
2019-02-19T11:07:30.349Z,149716.69
2019-02-19T11:08:36.293Z,149711.00
2019-02-19T11:09:42.203Z,149661.59
2019-02-19T11:10:48.152Z,149674.23
2019-02-19T11:11:54.083Z,149706.53
2019-02-19T11:12:59.953Z,149726.83
2019-02-19T11:14:05.541Z,149707.81
2019-02-19T11:15:11.510Z,149679.28
2019-02-19T11:16:17.463Z,149660.95
2019-02-19T11:17:23.344Z,149683.11
2019-02-19T11:18:29.266Z,149697.03
2019-02-19T11:19:35.213Z,149682.47
2019-02-19T11:20:41.156Z,149681.19
2019-02-19T11:21:47.133Z,149692.63
2019-02-19T11:22:53.036Z,149684.37
2019-02-19T11:24:00.848Z,149714.78
2019-02-19T11:25:06.659Z,149650.81
2019-02-19T11:26:12.647Z,149633.06
2019-02-19T11:27:18.281Z,149627.97
2019-02-19T11:28:23.880Z,149636.84
2019-02-19T11:29:29.808Z,149665.36
2019-02-19T11:30:35.739Z,149681.83
2019-02-19T11:31:41.627Z,149724.92
2019-02-19T11:32:47.186Z,149683.11
2019-02-19T11:33:53.119Z,149696.39
2019-02-19T11:34:58.998Z,149684.37
2019-02-19T11:36:04.170Z,149688.16
2019-02-19T11:37:10.054Z,149712.27
2019-02-19T11:38:15.967Z,149700.22
2019-02-19T11:39:22.632Z,149681.19
2019-02-19T11:40:27.509Z,149700.22
2019-02-19T11:41:33.475Z,149704.03
2019-02-19T11:42:39.343Z,149662.81
2019-02-19T11:43:45.289Z,149671.69
2019-02-19T11:44:51.301Z,149695.16
2019-02-19T11:45:56.879Z,149701.48
2019-02-19T11:47:02.789Z,149748.98
2019-02-19T11:48:08.675Z,149768.66
2019-02-19T11:49:14.686Z,149683.75
2019-02-19T11:50:20.591Z,149705.27
2019-02-19T11:51:26.489Z,149698.94
2019-02-19T11:52:32.402Z,149700.84
2019-02-19T11:53:38.350Z,149707.17
2019-02-19T11:54:44.331Z,149692.63
2019-02-19T11:55:50.262Z,149694.53
2019-02-19T11:56:56.167Z,149688.16
2019-02-19T11:58:02.048Z,149672.95
2019-02-19T11:59:08.747Z,149676.16
2019-02-19T12:00:13.801Z,149688.80
2019-02-19T12:01:19.747Z,149698.31
2019-02-19T12:02:32.765Z,149667.28
2019-02-19T12:03:31.309Z,149682.47
2019-02-19T12:04:37.262Z,149696.39
2019-02-19T12:05:43.139Z,149714.78
2019-02-19T12:06:49.495Z,149712.27
2019-02-19T12:07:55.432Z,149696.39
2019-02-19T12:09:01.364Z,149686.30
2019-02-19T12:10:07.203Z,149708.44
2019-02-19T12:11:16.223Z,149643.84
2019-02-19T12:12:22.197Z,149646.98
2019-02-19T12:13:28.116Z,149639.39
2019-02-19T12:14:34.129Z,149635.61
2019-02-19T12:15:40.099Z,149646.98
2019-02-19T12:16:45.995Z,149653.94
2019-02-19T12:17:51.909Z,149632.44
2019-02-19T12:18:57.863Z,149606.45
2019-02-19T12:20:03.428Z,149636.25
2019-02-19T12:21:10.607Z,149645.70
2019-02-19T12:22:14.877Z,149647.63
2019-02-19T12:23:20.470Z,149649.53
2019-02-19T12:24:26.395Z,149694.53
2019-02-19T12:25:32.280Z,149689.44
2019-02-19T12:26:38.173Z,149719.23
2019-02-19T12:27:44.682Z,149685.66
2019-02-19T12:28:50.745Z,149693.25
2019-02-19T12:29:56.668Z,149659.67
2019-02-19T12:31:02.580Z,149685.02
2019-02-19T12:32:08.520Z,149733.16